• Join FlightAware (Why Join?)
  • Login
  • US Flag 
08:17PM EDT


 

Airport Tracker/Info


-or-


 

Live Flight TrackerFlight Track Log ✈ RBY701 ✈ 07-May-2013 ✈ KGPT - KAGS

Flight Track Log - Related Links

Times and Time Zones

All times are in EDT time to prevent confusion due to time zone crossing. See the RBY701 flight status page for this flight to view local times or setup timezone preferences in your user account.

Time Position Orientation Groundspeed Altitude Reporting Facility
EDT Latitude Longitude Course Direction KTS MPH feet Rate Location/Type
03:53PM 30.3617 -89.0219 69° East 220 253 2,400  Level Houston Center
03:54PM 30.3889 -88.9392 69° East 257 296 5,200 2,940 Climbing Houston Center
03:55PM 30.4344 -88.8672 54° Northeast 275 316 8,500 2,700 Climbing Houston Center
03:56PM 30.4797 -88.7894 56° Northeast 286 329 10,900 2,280 Climbing Houston Center
03:58PM 30.5306 -88.6997 57° Northeast 324 373 13,300 2,520 Climbing Houston Center
03:59PM 30.5967 -88.5811 57° Northeast 360 414 16,200 2,340 Climbing Houston Center
04:00PM 30.6564 -88.4783 56° Northeast 383 441 18,200 1,980 Climbing Houston Center
04:01PM 30.7186 -88.3694 56° Northeast 403 464 20,300 1,980 Climbing Houston Center
04:02PM 30.7917 -88.2700 49° Northeast 408 470 22,400 1,740 Climbing Houston Center
04:03PM 30.8669 -88.1683 49° Northeast 418 481 24,000 1,440 Climbing Houston Center
04:04PM 30.9558 -88.0525 48° Northeast 430 495 25,400 1,140 Climbing Houston Center
04:05PM 31.0369 -87.9444 49° Northeast 442 509 26,400 1,200 Climbing Houston Center
04:06PM 31.1192 -87.8325 49° Northeast 453 521 27,900 1,560 Climbing Houston Center
04:07PM 31.2203 -87.6942 49° Northeast 465 535 29,700 1,740 Climbing Houston Center
04:08PM 31.3072 -87.5781 49° Northeast 459 528 31,600 1,500 Climbing Houston Center
04:09PM 31.3881 -87.4686 49° Northeast 448 516 32,900 780 Climbing Houston Center
04:10PM 31.4572 -87.3836 46° Northeast 454 522 33,000  Climbing Atlanta Center
04:11PM 31.5375 -87.2719 50° Northeast 449 517 33,000  Level Atlanta Center
04:12PM 31.6194 -87.1628 49° Northeast 449 517 33,000  Level Atlanta Center
04:13PM 31.6889 -87.0603 51° Northeast 449 517 33,000  Level Atlanta Center
04:14PM 31.7667 -86.9506 50° Northeast 443 510 33,000  Level Atlanta Center
04:15PM 31.8506 -86.8358 49° Northeast 443 510 33,000  Level Atlanta Center
04:16PM 31.9325 -86.7258 49° Northeast 443 510 33,000  Level Atlanta Center
04:17PM 32.0269 -86.6036 48° Northeast 443 510 33,000  Level Atlanta Center
04:18PM 32.1064 -86.4908 50° Northeast 448 516 33,000  Level Atlanta Center
04:19PM 32.1750 -86.3872 52° Northeast 453 521 33,000  Level Atlanta Center
04:20PM 32.2653 -86.2594 50° Northeast 453 521 33,000  Level Atlanta Center
04:21PM 32.2869 -86.0928 81° East 453 521 33,000  Level Atlanta Center
04:22PM 32.3225 -85.9436 74° East 460 529 33,000 -360 Level Atlanta Center
04:23PM 32.3664 -85.7994 70° East 460 529 32,400 -840 Descending Atlanta Center
04:24PM 32.4125 -85.6456 70° East 477 549 31,400 -720 Descending Atlanta Center
04:25PM 32.4539 -85.4961 72° East 477 549 31,000 -240 Descending Atlanta Center
04:26PM 32.4933 -85.3442 73° East 477 549 31,000  Level Atlanta Center
04:27PM 32.5322 -85.1944 73° East 477 549 31,000  Level Atlanta Center
04:28PM 32.5775 -85.0444 70° East 477 549 31,000  Level Atlanta Center
04:29PM 32.6161 -84.8922 73° East 482 555 31,000  Level Atlanta Center
04:30PM 32.6589 -84.7419 71° East 472 543 31,000  Level Atlanta Center
04:31PM 32.6992 -84.5942 72° East 472 543 31,000 -240 Level Atlanta Center
04:32PM 32.7375 -84.4439 73° East 472 543 30,600 -720 Descending Atlanta Center
04:33PM 32.7775 -84.2933 72° East 477 549 29,600 -960 Descending Atlanta Center
04:34PM 32.8172 -84.1403 73° East 477 549 28,700 -960 Descending Atlanta Center
04:35PM 32.8592 -83.9869 72° East 477 549 27,700 -1,020 Descending Atlanta Center
04:36PM 32.8986 -83.8361 73° East 477 549 26,700 -1,080 Descending Atlanta Center
04:37PM 32.9358 -83.6897 73° East 477 549 25,600 -960 Descending Atlanta Center
04:38PM 32.9792 -83.5708 66° East 461 531 24,800 -900 Descending Atlanta Center
04:39PM 33.0142 -83.4319 73° East 442 509 23,800 -1,380 Descending Atlanta Center
04:40PM 33.0531 -83.2928 72° East 442 509 22,100 -2,220 Descending Atlanta Center
04:41PM 33.0833 -83.1514 76° East 442 509 19,500 -2,520 Descending Atlanta Center
04:42PM 33.1178 -83.0169 73° East 429 494 17,100 -2,400 Descending Atlanta Center
04:43PM 33.1481 -82.8875 74° East 416 479 14,800 -2,280 Descending Atlanta Center
04:44PM 33.1761 -82.7656 75° East 393 452 12,600 -1,440 Descending Atlanta Center
04:45PM 33.2042 -82.6536 73° East 366 421 11,900 -660 Descending Atlanta Center
04:46PM 33.2281 -82.5636 72° East 323 372 11,300 -900 Descending Atlanta Center
04:47PM 33.2458 -82.4789 76° East 279 321 10,200 -1,380 Descending Atlanta Center
04:48PM 33.2531 -82.3944 84° East 261 300 8,600 -1,500 Descending Atlanta Center
04:49PM 33.2603 -82.3072 84° East 255 293 7,300 -1,200 Descending Atlanta Center
04:50PM 33.2697 -82.2350 81° East 255 293 6,200 -1,680 Descending Atlanta Center
04:51PM 33.2869 -82.1428 77° East 243 280 4,000 -2,220 Descending Atlanta Center
04:53PM 33.3699 -81.9645 68° East  Level Estimated
05:00PM 33.3699 -81.9645 68° East  Level Estimated
05:01PM 33.3699 -81.9645 68° East  Level Estimated
05:02PM 33.3699 -81.9645 68° East  Level Estimated
05:03PM 33.3699 -81.9645 68° East  Level Estimated
05:04PM 33.3699 -81.9645 68° East  Level Estimated